sensor_id;sensor_type;location;lat;lon;timestamp;P1;durP1;ratioP1;P2;durP2;ratioP2
14760;SDS011;7472;45.396;5.272;2023-07-30T00:01:14;6.65;;;4.68;;
14760;SDS011;7472;45.396;5.272;2023-07-30T00:03:41;5.47;;;4.63;;
14760;SDS011;7472;45.396;5.272;2023-07-30T00:06:09;6.15;;;5.32;;
14760;SDS011;7472;45.396;5.272;2023-07-30T00:08:36;5.00;;;4.57;;
14760;SDS011;7472;45.396;5.272;2023-07-30T00:11:03;6.47;;;4.90;;
14760;SDS011;7472;45.396;5.272;2023-07-30T00:13:31;4.90;;;4.43;;
14760;SDS011;7472;45.396;5.272;2023-07-30T00:15:58;4.88;;;4.38;;
14760;SDS011;7472;45.396;5.272;2023-07-30T00:18:27;10.23;;;4.97;;
14760;SDS011;7472;45.396;5.272;2023-07-30T00:20:54;7.10;;;4.93;;
14760;SDS011;7472;45.396;5.272;2023-07-30T00:23:21;4.93;;;4.53;;
14760;SDS011;7472;45.396;5.272;2023-07-30T00:25:49;5.45;;;4.95;;
14760;SDS011;7472;45.396;5.272;2023-07-30T00:28:16;5.57;;;5.05;;
14760;SDS011;7472;45.396;5.272;2023-07-30T00:30:44;5.30;;;4.80;;
14760;SDS011;7472;45.396;5.272;2023-07-30T00:33:11;6.88;;;5.25;;
14760;SDS011;7472;45.396;5.272;2023-07-30T00:35:40;4.95;;;4.40;;
14760;SDS011;7472;45.396;5.272;2023-07-30T00:38:07;5.35;;;4.85;;
14760;SDS011;7472;45.396;5.272;2023-07-30T00:40:39;5.20;;;4.70;;
14760;SDS011;7472;45.396;5.272;2023-07-30T00:43:06;5.65;;;4.85;;
14760;SDS011;7472;45.396;5.272;2023-07-30T00:45:34;5.85;;;5.00;;
14760;SDS011;7472;45.396;5.272;2023-07-30T00:48:01;4.95;;;4.43;;
14760;SDS011;7472;45.396;5.272;2023-07-30T00:50:29;5.88;;;4.80;;
14760;SDS011;7472;45.396;5.272;2023-07-30T00:52:58;5.28;;;4.78;;
14760;SDS011;7472;45.396;5.272;2023-07-30T00:55:26;5.13;;;4.57;;
14760;SDS011;7472;45.396;5.272;2023-07-30T00:57:53;5.38;;;4.75;;
14760;SDS011;7472;45.396;5.272;2023-07-30T01:00:20;5.68;;;4.68;;
14760;SDS011;7472;45.396;5.272;2023-07-30T01:02:49;5.90;;;4.38;;
14760;SDS011;7472;45.396;5.272;2023-07-30T01:05:17;4.97;;;4.47;;
14760;SDS011;7472;45.396;5.272;2023-07-30T01:07:45;5.35;;;4.20;;
14760;SDS011;7472;45.396;5.272;2023-07-30T01:10:14;4.70;;;3.97;;
14760;SDS011;7472;45.396;5.272;2023-07-30T01:12:42;5.88;;;3.88;;
14760;SDS011;7472;45.396;5.272;2023-07-30T01:15:09;4.20;;;3.83;;
14760;SDS011;7472;45.396;5.272;2023-07-30T01:17:37;4.80;;;4.20;;
14760;SDS011;7472;45.396;5.272;2023-07-30T01:20:05;7.57;;;3.97;;
14760;SDS011;7472;45.396;5.272;2023-07-30T01:22:34;4.40;;;4.00;;
14760;SDS011;7472;45.396;5.272;2023-07-30T01:25:01;4.85;;;4.05;;
14760;SDS011;7472;45.396;5.272;2023-07-30T01:27:29;5.88;;;4.15;;
14760;SDS011;7472;45.396;5.272;2023-07-30T01:30:05;5.22;;;4.50;;
14760;SDS011;7472;45.396;5.272;2023-07-30T01:32:33;5.53;;;4.10;;
14760;SDS011;7472;45.396;5.272;2023-07-30T01:35:01;4.63;;;4.22;;
14760;SDS011;7472;45.396;5.272;2023-07-30T01:37:29;5.05;;;4.63;;
14760;SDS011;7472;45.396;5.272;2023-07-30T01:39:58;5.05;;;4.60;;
14760;SDS011;7472;45.396;5.272;2023-07-30T01:42:27;5.85;;;4.35;;
14760;SDS011;7472;45.396;5.272;2023-07-30T01:44:56;3.88;;;3.55;;
14760;SDS011;7472;45.396;5.272;2023-07-30T01:47:23;4.60;;;4.18;;
14760;SDS011;7472;45.396;5.272;2023-07-30T01:49:51;4.85;;;4.38;;
14760;SDS011;7472;45.396;5.272;2023-07-30T01:52:18;5.78;;;4.32;;
14760;SDS011;7472;45.396;5.272;2023-07-30T01:54:45;5.30;;;4.47;;
14760;SDS011;7472;45.396;5.272;2023-07-30T01:57:14;6.55;;;4.47;;
14760;SDS011;7472;45.396;5.272;2023-07-30T01:59:42;4.75;;;4.35;;
14760;SDS011;7472;45.396;5.272;2023-07-30T02:02:09;4.85;;;4.45;;
14760;SDS011;7472;45.396;5.272;2023-07-30T02:04:36;4.70;;;4.30;;
14760;SDS011;7472;45.396;5.272;2023-07-30T02:07:04;6.63;;;5.07;;
14760;SDS011;7472;45.396;5.272;2023-07-30T02:09:31;4.57;;;4.18;;
14760;SDS011;7472;45.396;5.272;2023-07-30T02:11:58;5.95;;;4.38;;
14760;SDS011;7472;45.396;5.272;2023-07-30T02:14:27;4.85;;;4.45;;
14760;SDS011;7472;45.396;5.272;2023-07-30T02:16:55;4.68;;;4.20;;
14760;SDS011;7472;45.396;5.272;2023-07-30T02:19:22;4.85;;;4.40;;
14760;SDS011;7472;45.396;5.272;2023-07-30T02:21:49;4.47;;;3.83;;
14760;SDS011;7472;45.396;5.272;2023-07-30T02:24:17;4.63;;;4.20;;
14760;SDS011;7472;45.396;5.272;2023-07-30T02:26:44;5.00;;;4.50;;
14760;SDS011;7472;45.396;5.272;2023-07-30T02:29:12;4.82;;;4.43;;
14760;SDS011;7472;45.396;5.272;2023-07-30T02:31:41;4.90;;;4.47;;
14760;SDS011;7472;45.396;5.272;2023-07-30T02:34:08;5.65;;;4.35;;
14760;SDS011;7472;45.396;5.272;2023-07-30T02:36:36;4.57;;;4.18;;
14760;SDS011;7472;45.396;5.272;2023-07-30T02:39:03;4.68;;;4.28;;
14760;SDS011;7472;45.396;5.272;2023-07-30T02:41:31;4.72;;;4.18;;
14760;SDS011;7472;45.396;5.272;2023-07-30T02:43:58;6.40;;;5.07;;
14760;SDS011;7472;45.396;5.272;2023-07-30T02:46:25;4.60;;;4.13;;
14760;SDS011;7472;45.396;5.272;2023-07-30T02:48:54;5.55;;;3.97;;
14760;SDS011;7472;45.396;5.272;2023-07-30T02:51:22;7.40;;;4.07;;
14760;SDS011;7472;45.396;5.272;2023-07-30T02:53:51;7.60;;;4.50;;
14760;SDS011;7472;45.396;5.272;2023-07-30T02:56:19;5.47;;;4.95;;
14760;SDS011;7472;45.396;5.272;2023-07-30T02:58:47;4.55;;;4.15;;
14760;SDS011;7472;45.396;5.272;2023-07-30T03:01:14;4.60;;;4.20;;
14760;SDS011;7472;45.396;5.272;2023-07-30T03:03:41;5.53;;;4.22;;
14760;SDS011;7472;45.396;5.272;2023-07-30T03:06:10;6.72;;;4.28;;
14760;SDS011;7472;45.396;5.272;2023-07-30T03:08:37;5.55;;;4.07;;
14760;SDS011;7472;45.396;5.272;2023-07-30T03:11:05;4.78;;;4.28;;
14760;SDS011;7472;45.396;5.272;2023-07-30T03:13:32;4.63;;;3.85;;
14760;SDS011;7472;45.396;5.272;2023-07-30T03:16:00;4.53;;;3.80;;
14760;SDS011;7472;45.396;5.272;2023-07-30T03:18:27;5.28;;;4.38;;
14760;SDS011;7472;45.396;5.272;2023-07-30T03:20:58;4.95;;;4.47;;
14760;SDS011;7472;45.396;5.272;2023-07-30T03:23:27;4.63;;;4.22;;
14760;SDS011;7472;45.396;5.272;2023-07-30T03:25:54;4.63;;;4.22;;
14760;SDS011;7472;45.396;5.272;2023-07-30T03:28:22;6.72;;;3.85;;
14760;SDS011;7472;45.396;5.272;2023-07-30T03:30:49;5.22;;;4.72;;
14760;SDS011;7472;45.396;5.272;2023-07-30T03:33:16;7.40;;;4.70;;
14760;SDS011;7472;45.396;5.272;2023-07-30T03:35:44;5.30;;;4.80;;
14760;SDS011;7472;45.396;5.272;2023-07-30T03:38:11;4.57;;;4.20;;
14760;SDS011;7472;45.396;5.272;2023-07-30T03:40:40;5.22;;;4.72;;
14760;SDS011;7472;45.396;5.272;2023-07-30T03:43:07;5.15;;;4.75;;
14760;SDS011;7472;45.396;5.272;2023-07-30T03:45:35;6.15;;;5.13;;
14760;SDS011;7472;45.396;5.272;2023-07-30T03:48:02;5.13;;;4.53;;
14760;SDS011;7472;45.396;5.272;2023-07-30T03:50:29;6.68;;;5.38;;
14760;SDS011;7472;45.396;5.272;2023-07-30T03:52:57;5.50;;;4.55;;
14760;SDS011;7472;45.396;5.272;2023-07-30T03:55:24;7.80;;;5.10;;
14760;SDS011;7472;45.396;5.272;2023-07-30T03:57:53;6.03;;;4.85;;
14760;SDS011;7472;45.396;5.272;2023-07-30T04:00:20;7.03;;;5.13;;
14760;SDS011;7472;45.396;5.272;2023-07-30T04:02:48;5.82;;;4.65;;
14760;SDS011;7472;45.396;5.272;2023-07-30T04:05:15;5.68;;;5.10;;
14760;SDS011;7472;45.396;5.272;2023-07-30T04:07:43;5.00;;;4.47;;
14760;SDS011;7472;45.396;5.272;2023-07-30T04:10:10;5.20;;;4.70;;
14760;SDS011;7472;45.396;5.272;2023-07-30T04:12:37;7.03;;;4.80;;
14760;SDS011;7472;45.396;5.272;2023-07-30T04:15:07;6.35;;;4.70;;
14760;SDS011;7472;45.396;5.272;2023-07-30T04:17:34;5.15;;;4.65;;
14760;SDS011;7472;45.396;5.272;2023-07-30T04:20:02;5.60;;;5.10;;
14760;SDS011;7472;45.396;5.272;2023-07-30T04:22:30;8.48;;;5.32;;
14760;SDS011;7472;45.396;5.272;2023-07-30T04:24:57;9.73;;;5.05;;
14760;SDS011;7472;45.396;5.272;2023-07-30T04:27:24;6.07;;;5.35;;
14760;SDS011;7472;45.396;5.272;2023-07-30T04:29:52;5.45;;;4.95;;
14760;SDS011;7472;45.396;5.272;2023-07-30T04:32:21;5.70;;;5.20;;
14760;SDS011;7472;45.396;5.272;2023-07-30T04:34:48;7.85;;;5.07;;
14760;SDS011;7472;45.396;5.272;2023-07-30T04:37:15;6.45;;;5.50;;
14760;SDS011;7472;45.396;5.272;2023-07-30T04:39:43;7.45;;;4.85;;
14760;SDS011;7472;45.396;5.272;2023-07-30T04:42:10;5.40;;;4.78;;
14760;SDS011;7472;45.396;5.272;2023-07-30T04:44:38;5.75;;;5.35;;
14760;SDS011;7472;45.396;5.272;2023-07-30T04:47:06;6.88;;;5.07;;
14760;SDS011;7472;45.396;5.272;2023-07-30T04:49:35;6.53;;;5.93;;
14760;SDS011;7472;45.396;5.272;2023-07-30T04:52:05;6.40;;;5.15;;
14760;SDS011;7472;45.396;5.272;2023-07-30T04:54:33;5.32;;;4.85;;
14760;SDS011;7472;45.396;5.272;2023-07-30T04:57:01;6.13;;;4.95;;
14760;SDS011;7472;45.396;5.272;2023-07-30T04:59:29;6.15;;;5.55;;
14760;SDS011;7472;45.396;5.272;2023-07-30T05:01:56;5.00;;;4.60;;
14760;SDS011;7472;45.396;5.272;2023-07-30T05:04:23;5.43;;;4.93;;
14760;SDS011;7472;45.396;5.272;2023-07-30T05:06:52;6.90;;;5.72;;
14760;SDS011;7472;45.396;5.272;2023-07-30T05:09:19;7.05;;;5.35;;
14760;SDS011;7472;45.396;5.272;2023-07-30T05:11:47;5.57;;;4.75;;
14760;SDS011;7472;45.396;5.272;2023-07-30T05:14:14;4.93;;;4.47;;
14760;SDS011;7472;45.396;5.272;2023-07-30T05:16:42;7.50;;;4.68;;
14760;SDS011;7472;45.396;5.272;2023-07-30T05:19:09;5.43;;;4.32;;
14760;SDS011;7472;45.396;5.272;2023-07-30T05:21:37;5.38;;;4.88;;
14760;SDS011;7472;45.396;5.272;2023-07-30T05:24:06;5.05;;;4.55;;
14760;SDS011;7472;45.396;5.272;2023-07-30T05:26:34;7.72;;;5.05;;
14760;SDS011;7472;45.396;5.272;2023-07-30T05:29:01;5.25;;;4.75;;
14760;SDS011;7472;45.396;5.272;2023-07-30T05:31:29;5.32;;;4.80;;
14760;SDS011;7472;45.396;5.272;2023-07-30T05:33:56;5.38;;;4.88;;
14760;SDS011;7472;45.396;5.272;2023-07-30T05:36:24;5.35;;;4.85;;
14760;SDS011;7472;45.396;5.272;2023-07-30T05:38:51;5.70;;;4.97;;
14760;SDS011;7472;45.396;5.272;2023-07-30T05:41:20;6.40;;;4.97;;
14760;SDS011;7472;45.396;5.272;2023-07-30T05:43:47;7.82;;;5.30;;
14760;SDS011;7472;45.396;5.272;2023-07-30T05:46:15;6.63;;;5.65;;
14760;SDS011;7472;45.396;5.272;2023-07-30T05:48:42;5.78;;;5.28;;
14760;SDS011;7472;45.396;5.272;2023-07-30T05:51:09;5.47;;;4.97;;
14760;SDS011;7472;45.396;5.272;2023-07-30T05:53:37;6.35;;;5.13;;
14760;SDS011;7472;45.396;5.272;2023-07-30T05:56:04;6.60;;;6.00;;
14760;SDS011;7472;45.396;5.272;2023-07-30T05:58:33;6.10;;;5.50;;
14760;SDS011;7472;45.396;5.272;2023-07-30T06:01:00;6.32;;;5.35;;
14760;SDS011;7472;45.396;5.272;2023-07-30T06:03:28;7.13;;;6.53;;
14760;SDS011;7472;45.396;5.272;2023-07-30T06:05:55;7.28;;;6.38;;
14760;SDS011;7472;45.396;5.272;2023-07-30T06:08:22;8.48;;;6.55;;
14760;SDS011;7472;45.396;5.272;2023-07-30T06:10:50;8.15;;;6.53;;
14760;SDS011;7472;45.396;5.272;2023-07-30T06:13:18;8.52;;;5.82;;
14760;SDS011;7472;45.396;5.272;2023-07-30T06:15:46;7.40;;;6.45;;
14760;SDS011;7472;45.396;5.272;2023-07-30T06:18:14;8.13;;;6.80;;
14760;SDS011;7472;45.396;5.272;2023-07-30T06:20:41;7.95;;;6.78;;
14760;SDS011;7472;45.396;5.272;2023-07-30T06:23:08;7.95;;;7.25;;
14760;SDS011;7472;45.396;5.272;2023-07-30T06:25:36;7.50;;;6.80;;
14760;SDS011;7472;45.396;5.272;2023-07-30T06:28:04;8.75;;;7.38;;
14760;SDS011;7472;45.396;5.272;2023-07-30T06:30:31;8.88;;;7.97;;
14760;SDS011;7472;45.396;5.272;2023-07-30T06:33:00;9.32;;;8.45;;
14760;SDS011;7472;45.396;5.272;2023-07-30T06:35:27;9.48;;;8.68;;
14760;SDS011;7472;45.396;5.272;2023-07-30T06:37:55;10.00;;;9.00;;
14760;SDS011;7472;45.396;5.272;2023-07-30T06:40:22;8.70;;;7.90;;
14760;SDS011;7472;45.396;5.272;2023-07-30T06:42:49;8.52;;;7.65;;
14760;SDS011;7472;45.396;5.272;2023-07-30T06:45:17;7.85;;;7.15;;
14760;SDS011;7472;45.396;5.272;2023-07-30T06:47:44;8.23;;;7.43;;
14760;SDS011;7472;45.396;5.272;2023-07-30T06:50:13;8.35;;;7.65;;
14760;SDS011;7472;45.396;5.272;2023-07-30T06:52:40;10.68;;;9.57;;
14760;SDS011;7472;45.396;5.272;2023-07-30T06:55:08;10.13;;;9.13;;
14760;SDS011;7472;45.396;5.272;2023-07-30T06:57:35;8.88;;;7.70;;
14760;SDS011;7472;45.396;5.272;2023-07-30T07:00:03;5.32;;;4.82;;
14760;SDS011;7472;45.396;5.272;2023-07-30T07:02:31;7.85;;;7.05;;
14760;SDS011;7472;45.396;5.272;2023-07-30T07:04:58;9.00;;;8.10;;
14760;SDS011;7472;45.396;5.272;2023-07-30T07:07:27;8.60;;;7.80;;
14760;SDS011;7472;45.396;5.272;2023-07-30T07:09:54;5.15;;;4.30;;
14760;SDS011;7472;45.396;5.272;2023-07-30T07:12:22;8.35;;;7.55;;
14760;SDS011;7472;45.396;5.272;2023-07-30T07:14:49;6.80;;;6.10;;
14760;SDS011;7472;45.396;5.272;2023-07-30T07:17:17;2.95;;;2.65;;
14760;SDS011;7472;45.396;5.272;2023-07-30T07:19:44;2.97;;;2.50;;
14760;SDS011;7472;45.396;5.272;2023-07-30T07:22:12;3.05;;;2.55;;
14760;SDS011;7472;45.396;5.272;2023-07-30T07:24:41;3.30;;;2.92;;
14760;SDS011;7472;45.396;5.272;2023-07-30T07:27:08;3.25;;;2.40;;
14760;SDS011;7472;45.396;5.272;2023-07-30T07:29:35;5.95;;;2.50;;
14760;SDS011;7472;45.396;5.272;2023-07-30T07:32:03;3.13;;;2.33;;
14760;SDS011;7472;45.396;5.272;2023-07-30T07:34:30;3.47;;;2.63;;
14760;SDS011;7472;45.396;5.272;2023-07-30T07:36:58;2.50;;;1.88;;
14760;SDS011;7472;45.396;5.272;2023-07-30T07:39:25;3.83;;;2.38;;
14760;SDS011;7472;45.396;5.272;2023-07-30T07:41:54;2.58;;;2.10;;
14760;SDS011;7472;45.396;5.272;2023-07-30T07:44:22;2.30;;;2.10;;
14760;SDS011;7472;45.396;5.272;2023-07-30T07:46:49;2.85;;;2.55;;
14760;SDS011;7472;45.396;5.272;2023-07-30T07:49:17;3.25;;;2.10;;
14760;SDS011;7472;45.396;5.272;2023-07-30T07:51:44;6.20;;;3.20;;
14760;SDS011;7472;45.396;5.272;2023-07-30T07:54:11;2.38;;;2.17;;
14760;SDS011;7472;45.396;5.272;2023-07-30T07:56:39;3.15;;;2.03;;
14760;SDS011;7472;45.396;5.272;2023-07-30T07:59:08;2.45;;;1.95;;
14760;SDS011;7472;45.396;5.272;2023-07-30T08:01:35;4.35;;;1.80;;
14760;SDS011;7472;45.396;5.272;2023-07-30T08:04:03;2.05;;;1.85;;
14760;SDS011;7472;45.396;5.272;2023-07-30T08:06:31;2.25;;;2.03;;
14760;SDS011;7472;45.396;5.272;2023-07-30T08:08:58;3.47;;;2.25;;
14760;SDS011;7472;45.396;5.272;2023-07-30T08:11:26;4.53;;;2.20;;
14760;SDS011;7472;45.396;5.272;2023-07-30T08:13:53;3.47;;;2.45;;
14760;SDS011;7472;45.396;5.272;2023-07-30T08:16:22;2.53;;;2.13;;
14760;SDS011;7472;45.396;5.272;2023-07-30T08:18:50;2.35;;;2.15;;
14760;SDS011;7472;45.396;5.272;2023-07-30T08:21:17;2.67;;;2.30;;
14760;SDS011;7472;45.396;5.272;2023-07-30T08:23:45;2.40;;;2.20;;
14760;SDS011;7472;45.396;5.272;2023-07-30T08:26:13;5.55;;;2.60;;
14760;SDS011;7472;45.396;5.272;2023-07-30T08:28:40;2.92;;;2.50;;
14760;SDS011;7472;45.396;5.272;2023-07-30T08:31:08;2.63;;;2.42;;
14760;SDS011;7472;45.396;5.272;2023-07-30T08:33:36;2.20;;;2.00;;
14760;SDS011;7472;45.396;5.272;2023-07-30T08:36:04;2.70;;;2.50;;
14760;SDS011;7472;45.396;5.272;2023-07-30T08:38:31;3.63;;;2.00;;
14760;SDS011;7472;45.396;5.272;2023-07-30T08:40:59;3.17;;;2.20;;
14760;SDS011;7472;45.396;5.272;2023-07-30T08:43:26;2.58;;;2.10;;
14760;SDS011;7472;45.396;5.272;2023-07-30T08:45:54;2.63;;;2.40;;
14760;SDS011;7472;45.396;5.272;2023-07-30T08:48:21;4.00;;;2.75;;
14760;SDS011;7472;45.396;5.272;2023-07-30T08:50:50;3.42;;;2.20;;
14760;SDS011;7472;45.396;5.272;2023-07-30T08:53:18;2.40;;;2.20;;
14760;SDS011;7472;45.396;5.272;2023-07-30T08:55:48;2.85;;;2.65;;
14760;SDS011;7472;45.396;5.272;2023-07-30T08:58:23;3.58;;;2.40;;
14760;SDS011;7472;45.396;5.272;2023-07-30T09:01:12;2.75;;;2.55;;
14760;SDS011;7472;45.396;5.272;2023-07-30T09:03:41;2.63;;;2.42;;
14760;SDS011;7472;45.396;5.272;2023-07-30T09:06:10;2.47;;;2.28;;
14760;SDS011;7472;45.396;5.272;2023-07-30T09:08:39;2.47;;;2.30;;
14760;SDS011;7472;45.396;5.272;2023-07-30T09:11:07;2.20;;;2.00;;
14760;SDS011;7472;45.396;5.272;2023-07-30T09:13:36;2.17;;;1.95;;
14760;SDS011;7472;45.396;5.272;2023-07-30T09:16:08;2.38;;;2.10;;
14760;SDS011;7472;45.396;5.272;2023-07-30T09:18:39;2.40;;;2.20;;
14760;SDS011;7472;45.396;5.272;2023-07-30T09:21:07;2.30;;;2.10;;
14760;SDS011;7472;45.396;5.272;2023-07-30T09:23:40;1.95;;;1.77;;
14760;SDS011;7472;45.396;5.272;2023-07-30T09:26:08;2.20;;;1.65;;
14760;SDS011;7472;45.396;5.272;2023-07-30T09:28:36;2.53;;;2.33;;
14760;SDS011;7472;45.396;5.272;2023-07-30T09:31:04;2.55;;;1.85;;
14760;SDS011;7472;45.396;5.272;2023-07-30T09:33:33;2.72;;;2.50;;
14760;SDS011;7472;45.396;5.272;2023-07-30T09:36:01;3.78;;;1.88;;
14760;SDS011;7472;45.396;5.272;2023-07-30T09:38:28;2.78;;;1.75;;
14760;SDS011;7472;45.396;5.272;2023-07-30T09:41:01;4.68;;;2.10;;
14760;SDS011;7472;45.396;5.272;2023-07-30T09:43:29;5.20;;;2.10;;
14760;SDS011;7472;45.396;5.272;2023-07-30T09:46:00;1.92;;;1.77;;
14760;SDS011;7472;45.396;5.272;2023-07-30T09:48:29;2.55;;;2.10;;
14760;SDS011;7472;45.396;5.272;2023-07-30T09:50:57;2.10;;;1.70;;
14760;SDS011;7472;45.396;5.272;2023-07-30T09:53:27;1.90;;;1.80;;
14760;SDS011;7472;45.396;5.272;2023-07-30T09:55:55;1.88;;;1.70;;
14760;SDS011;7472;45.396;5.272;2023-07-30T09:58:26;4.45;;;1.95;;
14760;SDS011;7472;45.396;5.272;2023-07-30T10:01:02;1.58;;;1.40;;
14760;SDS011;7472;45.396;5.272;2023-07-30T10:03:36;2.15;;;1.95;;
14760;SDS011;7472;45.396;5.272;2023-07-30T10:06:20;2.17;;;1.70;;
14760;SDS011;7472;45.396;5.272;2023-07-30T10:08:57;1.73;;;1.63;;
14760;SDS011;7472;45.396;5.272;2023-07-30T10:11:34;1.95;;;1.75;;
14760;SDS011;7472;45.396;5.272;2023-07-30T10:14:15;1.80;;;1.70;;
14760;SDS011;7472;45.396;5.272;2023-07-30T10:17:00;2.03;;;1.77;;
14760;SDS011;7472;45.396;5.272;2023-07-30T10:22:36;2.10;;;1.90;;
14760;SDS011;7472;45.396;5.272;2023-07-30T10:25:06;2.40;;;1.90;;
14760;SDS011;7472;45.396;5.272;2023-07-30T10:27:40;2.95;;;1.75;;
14760;SDS011;7472;45.396;5.272;2023-07-30T10:30:15;2.72;;;1.73;;
14760;SDS011;7472;45.396;5.272;2023-07-30T10:33:01;2.20;;;2.00;;
14760;SDS011;7472;45.396;5.272;2023-07-30T10:35:36;1.85;;;1.73;;
14760;SDS011;7472;45.396;5.272;2023-07-30T10:38:18;2.42;;;2.00;;
14760;SDS011;7472;45.396;5.272;2023-07-30T10:40:59;3.03;;;1.85;;
14760;SDS011;7472;45.396;5.272;2023-07-30T10:43:28;2.05;;;1.85;;
14760;SDS011;7472;45.396;5.272;2023-07-30T10:45:57;2.50;;;1.88;;
14760;SDS011;7472;45.396;5.272;2023-07-30T10:48:31;1.70;;;1.60;;
14760;SDS011;7472;45.396;5.272;2023-07-30T10:51:00;2.67;;;1.92;;
14760;SDS011;7472;45.396;5.272;2023-07-30T10:53:28;2.35;;;2.15;;
14760;SDS011;7472;45.396;5.272;2023-07-30T10:55:57;2.35;;;1.73;;
14760;SDS011;7472;45.396;5.272;2023-07-30T10:58:27;2.10;;;1.80;;
14760;SDS011;7472;45.396;5.272;2023-07-30T11:00:57;3.40;;;1.88;;
14760;SDS011;7472;45.396;5.272;2023-07-30T11:03:27;2.08;;;1.88;;
14760;SDS011;7472;45.396;5.272;2023-07-30T11:05:55;1.90;;;1.80;;
14760;SDS011;7472;45.396;5.272;2023-07-30T11:08:31;2.35;;;1.55;;
14760;SDS011;7472;45.396;5.272;2023-07-30T11:11:00;2.10;;;1.77;;
14760;SDS011;7472;45.396;5.272;2023-07-30T11:13:27;2.25;;;1.85;;
14760;SDS011;7472;45.396;5.272;2023-07-30T11:15:55;2.70;;;1.90;;
14760;SDS011;7472;45.396;5.272;2023-07-30T11:18:26;2.70;;;1.77;;
14760;SDS011;7472;45.396;5.272;2023-07-30T11:21:02;1.67;;;1.52;;
14760;SDS011;7472;45.396;5.272;2023-07-30T11:23:29;2.05;;;1.80;;
14760;SDS011;7472;45.396;5.272;2023-07-30T11:25:57;2.20;;;1.88;;
14760;SDS011;7472;45.396;5.272;2023-07-30T11:28:27;2.80;;;1.48;;
14760;SDS011;7472;45.396;5.272;2023-07-30T11:30:56;2.10;;;1.90;;
14760;SDS011;7472;45.396;5.272;2023-07-30T11:33:26;2.60;;;1.73;;
14760;SDS011;7472;45.396;5.272;2023-07-30T11:35:54;1.58;;;1.30;;
14760;SDS011;7472;45.396;5.272;2023-07-30T11:38:22;4.97;;;1.30;;
14760;SDS011;7472;45.396;5.272;2023-07-30T11:40:49;2.25;;;1.70;;
14760;SDS011;7472;45.396;5.272;2023-07-30T11:43:17;2.00;;;1.65;;
14760;SDS011;7472;45.396;5.272;2023-07-30T11:45:45;1.60;;;1.50;;
14760;SDS011;7472;45.396;5.272;2023-07-30T11:48:12;1.45;;;1.35;;
14760;SDS011;7472;45.396;5.272;2023-07-30T11:50:48;1.92;;;1.50;;
14760;SDS011;7472;45.396;5.272;2023-07-30T11:53:15;1.45;;;1.35;;
14760;SDS011;7472;45.396;5.272;2023-07-30T11:55:43;2.35;;;1.23;;
14760;SDS011;7472;45.396;5.272;2023-07-30T11:58:11;1.65;;;1.50;;
14760;SDS011;7472;45.396;5.272;2023-07-30T12:00:39;2.42;;;1.75;;
14760;SDS011;7472;45.396;5.272;2023-07-30T12:03:08;2.17;;;1.65;;
14760;SDS011;7472;45.396;5.272;2023-07-30T12:05:37;1.40;;;1.30;;
14760;SDS011;7472;45.396;5.272;2023-07-30T12:08:06;1.80;;;1.70;;
14760;SDS011;7472;45.396;5.272;2023-07-30T12:10:43;2.70;;;1.23;;
14760;SDS011;7472;45.396;5.272;2023-07-30T12:13:11;2.13;;;1.67;;
14760;SDS011;7472;45.396;5.272;2023-07-30T12:15:39;1.33;;;1.13;;
14760;SDS011;7472;45.396;5.272;2023-07-30T12:18:07;1.50;;;1.40;;
14760;SDS011;7472;45.396;5.272;2023-07-30T12:20:34;3.22;;;1.55;;
14760;SDS011;7472;45.396;5.272;2023-07-30T12:23:01;2.90;;;1.77;;
14760;SDS011;7472;45.396;5.272;2023-07-30T12:25:30;1.42;;;1.33;;
14760;SDS011;7472;45.396;5.272;2023-07-30T12:27:58;1.45;;;1.30;;
14760;SDS011;7472;45.396;5.272;2023-07-30T12:30:25;2.75;;;1.70;;
14760;SDS011;7472;45.396;5.272;2023-07-30T12:32:53;1.70;;;1.60;;
14760;SDS011;7472;45.396;5.272;2023-07-30T12:35:21;1.60;;;1.48;;
14760;SDS011;7472;45.396;5.272;2023-07-30T12:38:00;6.53;;;1.60;;
14760;SDS011;7472;45.396;5.272;2023-07-30T12:40:45;2.00;;;1.52;;
14760;SDS011;7472;45.396;5.272;2023-07-30T12:43:32;2.63;;;1.58;;
14760;SDS011;7472;45.396;5.272;2023-07-30T12:46:02;1.55;;;1.40;;
14760;SDS011;7472;45.396;5.272;2023-07-30T12:48:40;1.50;;;1.40;;
14760;SDS011;7472;45.396;5.272;2023-07-30T12:51:23;1.92;;;1.70;;
14760;SDS011;7472;45.396;5.272;2023-07-30T12:53:56;4.53;;;1.85;;
14760;SDS011;7472;45.396;5.272;2023-07-30T12:56:35;3.47;;;1.80;;
14760;SDS011;7472;45.396;5.272;2023-07-30T13:02:12;2.35;;;1.70;;
14760;SDS011;7472;45.396;5.272;2023-07-30T13:04:54;2.03;;;1.80;;
14760;SDS011;7472;45.396;5.272;2023-07-30T13:07:24;2.35;;;1.63;;
14760;SDS011;7472;45.396;5.272;2023-07-30T13:10:28;1.90;;;1.70;;
14760;SDS011;7472;45.396;5.272;2023-07-30T13:13:10;1.67;;;1.58;;
14760;SDS011;7472;45.396;5.272;2023-07-30T13:16:09;2.10;;;1.67;;
14760;SDS011;7472;45.396;5.272;2023-07-30T13:18:50;2.05;;;1.85;;
14760;SDS011;7472;45.396;5.272;2023-07-30T13:21:41;1.83;;;1.67;;
14760;SDS011;7472;45.396;5.272;2023-07-30T13:24:22;2.08;;;1.88;;
14760;SDS011;7472;45.396;5.272;2023-07-30T13:26:49;2.45;;;1.80;;
14760;SDS011;7472;45.396;5.272;2023-07-30T13:29:18;1.85;;;1.70;;
14760;SDS011;7472;45.396;5.272;2023-07-30T13:31:46;3.00;;;1.75;;
14760;SDS011;7472;45.396;5.272;2023-07-30T13:34:13;1.60;;;1.50;;
14760;SDS011;7472;45.396;5.272;2023-07-30T13:36:41;2.10;;;1.90;;
14760;SDS011;7472;45.396;5.272;2023-07-30T13:39:08;2.53;;;1.67;;
14760;SDS011;7472;45.396;5.272;2023-07-30T13:41:36;2.35;;;1.60;;
14760;SDS011;7472;45.396;5.272;2023-07-30T13:44:03;2.03;;;1.83;;
14760;SDS011;7472;45.396;5.272;2023-07-30T13:46:36;2.90;;;1.60;;
14760;SDS011;7472;45.396;5.272;2023-07-30T13:49:09;2.03;;;1.77;;
14760;SDS011;7472;45.396;5.272;2023-07-30T13:51:43;1.70;;;1.60;;
14760;SDS011;7472;45.396;5.272;2023-07-30T13:54:35;2.20;;;1.63;;
14760;SDS011;7472;45.396;5.272;2023-07-30T13:57:10;2.72;;;1.70;;
14760;SDS011;7472;45.396;5.272;2023-07-30T13:59:43;2.58;;;1.92;;
14760;SDS011;7472;45.396;5.272;2023-07-30T14:05:16;1.65;;;1.55;;
14760;SDS011;7472;45.396;5.272;2023-07-30T14:07:54;2.10;;;1.50;;
14760;SDS011;7472;45.396;5.272;2023-07-30T14:10:52;1.70;;;1.60;;
14760;SDS011;7472;45.396;5.272;2023-07-30T14:13:26;2.25;;;1.63;;
14760;SDS011;7472;45.396;5.272;2023-07-30T14:16:11;2.10;;;1.67;;
14760;SDS011;7472;45.396;5.272;2023-07-30T14:18:57;4.70;;;1.80;;
14760;SDS011;7472;45.396;5.272;2023-07-30T14:21:39;1.80;;;1.50;;
14760;SDS011;7472;45.396;5.272;2023-07-30T14:24:18;1.70;;;1.60;;
14760;SDS011;7472;45.396;5.272;2023-07-30T14:26:47;2.05;;;1.90;;
14760;SDS011;7472;45.396;5.272;2023-07-30T14:29:16;1.80;;;1.60;;
14760;SDS011;7472;45.396;5.272;2023-07-30T14:31:43;1.73;;;1.63;;
14760;SDS011;7472;45.396;5.272;2023-07-30T14:34:11;3.15;;;1.83;;
14760;SDS011;7472;45.396;5.272;2023-07-30T14:36:40;1.88;;;1.48;;
14760;SDS011;7472;45.396;5.272;2023-07-30T14:39:07;4.13;;;1.63;;
14760;SDS011;7472;45.396;5.272;2023-07-30T14:41:34;1.70;;;1.60;;
14760;SDS011;7472;45.396;5.272;2023-07-30T14:44:02;2.38;;;1.58;;
14760;SDS011;7472;45.396;5.272;2023-07-30T14:46:29;3.38;;;1.85;;
14760;SDS011;7472;45.396;5.272;2023-07-30T14:48:57;1.67;;;1.55;;
14760;SDS011;7472;45.396;5.272;2023-07-30T14:51:24;3.10;;;1.60;;
14760;SDS011;7472;45.396;5.272;2023-07-30T14:53:53;2.55;;;1.45;;
14760;SDS011;7472;45.396;5.272;2023-07-30T14:56:20;2.28;;;1.80;;
14760;SDS011;7472;45.396;5.272;2023-07-30T14:58:48;2.40;;;1.80;;
14760;SDS011;7472;45.396;5.272;2023-07-30T15:01:15;2.55;;;1.70;;
14760;SDS011;7472;45.396;5.272;2023-07-30T15:03:43;2.50;;;1.38;;
14760;SDS011;7472;45.396;5.272;2023-07-30T15:06:11;1.80;;;1.50;;
14760;SDS011;7472;45.396;5.272;2023-07-30T15:08:38;1.73;;;1.55;;
14760;SDS011;7472;45.396;5.272;2023-07-30T15:11:07;2.50;;;1.48;;
14760;SDS011;7472;45.396;5.272;2023-07-30T15:13:34;2.65;;;2.00;;
14760;SDS011;7472;45.396;5.272;2023-07-30T15:16:03;1.48;;;1.38;;
14760;SDS011;7472;45.396;5.272;2023-07-30T15:18:31;3.15;;;1.67;;
14760;SDS011;7472;45.396;5.272;2023-07-30T15:20:59;1.70;;;1.60;;
14760;SDS011;7472;45.396;5.272;2023-07-30T15:23:26;1.88;;;1.27;;